Time;durP1;ratioP1;P1;durP2;ratioP2;P2;SDS_P1;SDS_P2;PMS_P1;PMS_P2;Temp;Humidity;BMP_temperature;BMP_pressure;BME280_temperature;BME280_humidity;BME280_pressure;Samples;Min_cycle;Max_cycle;Signal;HPM_P1;HPM_P2
2022/10/08 00:01:10;;;;;;;;;;;;;;;11.86;71.21;102139.15;1727541;82;27462;-60
2022/10/08 00:03:40;;;;;;;;;;;;;;;11.81;71.26;102133.20;1731388;82;25427;-60
2022/10/08 00:06:12;;;;;;;;;;;;;;;11.76;71.29;102135.39;1731907;82;25763;-61
2022/10/08 00:08:41;;;;;;;;;;;;;;;11.69;71.42;102129.56;1735170;82;26471;-62
2022/10/08 00:11:11;;;;;;;;;;;;;;;11.65;71.43;102124.50;1736234;82;25673;-60
2022/10/08 00:13:39;;;;;;;;;;;;;;;11.62;71.39;102120.67;1731300;81;28346;-59
2022/10/08 00:16:15;;;;;;;;;;;;;;;11.56;71.78;102120.66;1731688;82;25750;-61
2022/10/08 00:18:43;;;;;;;;;;;;;;;11.51;71.88;102114.24;1718354;82;26295;-60
2022/10/08 00:21:14;;;;;;;;;;;;;;;11.49;71.87;102113.95;1736664;82;26181;-60
2022/10/08 00:23:42;;;;;;;;;;;;;;;11.45;71.76;102113.31;1734962;81;25696;-60
2022/10/08 00:26:10;;;;;;;;;;;;;;;11.40;71.83;102108.75;1735473;82;27628;-59
2022/10/08 00:28:38;;;;;;;;;;;;;;;11.38;71.89;102107.98;1731822;82;25667;-60
2022/10/08 00:31:09;;;;;;;;;;;;;;;11.34;71.89;102103.80;1731820;82;25668;-60
2022/10/08 00:33:37;;;;;;;;;;;;;;;11.31;72.15;102106.70;1730052;82;26076;-61
2022/10/08 00:36:06;;;;;;;;;;;;;;;11.28;72.16;102097.86;1726802;83;25687;-60
2022/10/08 00:38:33;;;;;;;;;;;;;;;11.24;72.14;102101.75;1738714;82;27448;-60
2022/10/08 00:41:00;;;;;;;;;;;;;;;11.20;72.36;102102.08;1736015;82;25719;-60
2022/10/08 00:43:38;;;;;;;;;;;;;;;11.15;72.33;102100.17;1735445;82;25716;-60
2022/10/08 00:46:06;;;;;;;;;;;;;;;11.09;72.30;102098.30;1731773;82;26004;-60
2022/10/08 00:48:32;;;;;;;;;;;;;;;11.04;72.39;102094.20;1734482;82;25517;-61
2022/10/08 00:50:59;;;;;;;;;;;;;;;11.01;72.56;102089.02;1733225;82;27514;-60
2022/10/08 00:53:25;;;;;;;;;;;;;;;10.96;72.71;102087.98;1731593;82;25673;-60
2022/10/08 00:55:52;;;;;;;;;;;;;;;10.95;72.64;102086.26;1733439;82;25906;-59
2022/10/08 00:58:21;;;;;;;;;;;;;;;10.94;72.67;102088.57;1732054;81;26082;-60
2022/10/08 01:00:49;;;;;;;;;;;;;;;10.94;72.77;102082.72;1731962;82;26173;-60
2022/10/08 01:03:16;;;;;;;;;;;;;;;10.93;72.66;102079.65;1731201;82;27574;-59
2022/10/08 01:06:07;;;;;;;;;;;;;;;10.93;72.69;102077.45;1733331;82;25768;-60
2022/10/08 01:08:49;;;;;;;;;;;;;;;10.89;72.55;102077.27;1726092;82;25761;-61
2022/10/08 01:11:34;;;;;;;;;;;;;;;10.84;73.03;102078.09;1728276;82;26426;-60
2022/10/08 01:14:18;;;;;;;;;;;;;;;10.80;72.87;102075.59;1733495;82;25391;-60
2022/10/08 01:17:11;;;;;;;;;;;;;;;10.77;72.70;102074.95;1735613;82;28336;-60
2022/10/08 01:19:41;;;;;;;;;;;;;;;10.73;72.59;102073.42;1733896;82;25435;-60
2022/10/08 01:22:29;;;;;;;;;;;;;;;10.68;72.71;102071.05;1736408;82;25725;-60
2022/10/08 01:27:46;;;;;;;;;;;;;;;10.64;72.82;102070.89;1727403;82;25708;-61
2022/10/08 01:30:15;;;;;;;;;;;;;;;10.63;72.98;102071.86;1735150;82;27466;-60
2022/10/08 01:32:57;;;;;;;;;;;;;;;10.62;73.03;102073.66;1731963;82;25708;-60
2022/10/08 01:35:29;;;;;;;;;;;;;;;10.62;72.99;102072.31;1735900;81;25861;-59
2022/10/08 01:37:58;;;;;;;;;;;;;;;10.65;73.02;102072.62;1736384;81;26240;-61
2022/10/08 01:40:30;;;;;;;;;;;;;;;10.69;73.07;102070.58;1732813;82;26676;-59
2022/10/08 01:42:59;;;;;;;;;;;;;;;10.69;73.22;102074.12;1733590;82;28308;-59
2022/10/08 01:45:38;;;;;;;;;;;;;;;10.74;73.37;102068.42;1741055;82;25961;-60
2022/10/08 01:48:07;;;;;;;;;;;;;;;10.78;73.52;102070.80;1741612;82;25740;-60
2022/10/08 01:50:58;;;;;;;;;;;;;;;10.82;73.57;102071.94;1737889;82;26296;-60
2022/10/08 01:53:26;;;;;;;;;;;;;;;10.87;73.62;102065.73;1739877;82;25954;-60
2022/10/08 01:55:54;;;;;;;;;;;;;;;10.89;73.67;102067.35;1735688;82;27688;-60
2022/10/08 01:58:24;;;;;;;;;;;;;;;10.90;73.68;102066.39;1737309;81;25728;-61
2022/10/08 02:00:54;;;;;;;;;;;;;;;10.90;73.64;102065.04;1737400;82;25680;-61
2022/10/08 02:03:21;;;;;;;;;;;;;;;10.90;73.57;102063.70;1735246;82;26885;-61
2022/10/08 02:05:51;;;;;;;;;;;;;;;10.89;73.51;102067.84;1736220;82;26447;-60
2022/10/08 02:08:18;;;;;;;;;;;;;;;10.87;73.73;102071.13;1738505;81;27614;-60
2022/10/08 02:10:44;;;;;;;;;;;;;;;10.87;73.70;102066.63;1756400;81;26217;-60
2022/10/08 02:13:11;;;;;;;;;;;;;;;10.88;73.64;102068.81;1749850;81;25470;-61
2022/10/08 02:15:43;;;;;;;;;;;;;;;10.88;73.68;102067.00;1741195;82;26026;-60
2022/10/08 02:18:22;;;;;;;;;;;;;;;10.90;73.83;102065.53;1735314;82;26443;-59
2022/10/08 02:20:58;;;;;;;;;;;;;;;10.88;73.46;102069.69;1728880;80;27537;-61
2022/10/08 02:23:31;;;;;;;;;;;;;;;10.88;73.45;102071.50;1752166;81;25701;-60
2022/10/08 02:26:00;;;;;;;;;;;;;;;10.86;73.57;102077.01;1735840;82;25487;-60
2022/10/08 02:28:48;;;;;;;;;;;;;;;10.84;73.34;102075.39;1733641;82;26173;-60
2022/10/08 02:31:31;;;;;;;;;;;;;;;10.79;73.24;102076.56;1737544;81;26379;-60
2022/10/08 02:34:13;;;;;;;;;;;;;;;10.76;73.35;102070.53;1737401;82;27541;-61
2022/10/08 02:36:42;;;;;;;;;;;;;;;10.78;73.38;102069.45;1740721;82;25711;-61
2022/10/08 02:39:10;;;;;;;;;;;;;;;10.77;73.42;102068.22;1741661;81;25629;-61
2022/10/08 02:41:43;;;;;;;;;;;;;;;10.76;73.35;102072.72;1731633;83;26208;-60
2022/10/08 02:44:14;;;;;;;;;;;;;;;10.74;73.37;102065.27;1728602;82;25994;-60
2022/10/08 02:46:43;;;;;;;;;;;;;;;10.74;73.19;102062.57;1735455;81;27643;-61
2022/10/08 02:49:13;;;;;;;;;;;;;;;10.71;73.06;102063.27;1734449;82;26281;-60
2022/10/08 02:51:44;;;;;;;;;;;;;;;10.69;73.00;102069.23;1742853;82;25734;-60
2022/10/08 02:54:11;;;;;;;;;;;;;;;10.69;73.10;102062.00;1741140;81;26184;-60
2022/10/08 02:56:57;;;;;;;;;;;;;;;10.66;72.96;102062.23;1741321;82;25883;-61
2022/10/08 02:59:25;;;;;;;;;;;;;;;10.60;72.77;102057.25;1733648;81;27547;-59
2022/10/08 03:02:03;;;;;;;;;;;;;;;10.55;72.68;102058.91;1731504;82;25878;-59
2022/10/08 03:04:38;;;;;;;;;;;;;;;10.52;72.87;102063.17;1733429;82;25742;-60
2022/10/08 03:07:05;;;;;;;;;;;;;;;10.44;72.74;102050.23;1737356;82;26463;-60
2022/10/08 03:09:37;;;;;;;;;;;;;;;10.39;72.88;102052.84;1734005;82;26211;-60
2022/10/08 03:12:04;;;;;;;;;;;;;;;10.39;72.87;102061.80;1731641;83;28344;-60
2022/10/08 03:14:33;;;;;;;;;;;;;;;10.34;72.98;102059.38;1733129;82;25814;-60
2022/10/08 03:17:00;;;;;;;;;;;;;;;10.33;73.06;102051.40;1731312;83;25691;-59
2022/10/08 03:19:27;;;;;;;;;;;;;;;10.30;72.96;102056.50;1738719;82;26181;-60
2022/10/08 03:21:55;;;;;;;;;;;;;;;10.31;73.16;102055.55;1740942;82;25681;-60
2022/10/08 03:24:21;;;;;;;;;;;;;;;10.32;73.18;102049.67;1704346;83;27203;-60
2022/10/08 03:26:48;;;;;;;;;;;;;;;10.34;73.28;102053.13;1731775;82;25656;-60
2022/10/08 03:29:14;;;;;;;;;;;;;;;10.36;73.08;102058.39;1736849;82;25700;-60
2022/10/08 03:31:41;;;;;;;;;;;;;;;10.35;72.84;102053.52;1734994;82;26096;-61
2022/10/08 03:34:08;;;;;;;;;;;;;;;10.32;72.73;102055.05;1736865;81;25590;-60
2022/10/08 03:36:35;;;;;;;;;;;;;;;10.27;72.61;102051.32;1731572;82;27576;-60
2022/10/08 03:39:02;;;;;;;;;;;;;;;10.23;72.63;102046.25;1748340;81;25766;-60
2022/10/08 03:41:30;;;;;;;;;;;;;;;10.22;72.77;102045.90;1755080;81;25764;-60
2022/10/08 03:43:58;;;;;;;;;;;;;;;10.18;72.80;102043.41;1736915;81;26105;-59
2022/10/08 03:46:25;;;;;;;;;;;;;;;10.15;72.80;102042.75;1741651;82;25636;-60
2022/10/08 03:48:51;;;;;;;;;;;;;;;10.11;72.71;102037.18;1736614;82;27490;-60
2022/10/08 03:51:19;;;;;;;;;;;;;;;10.08;72.66;102042.78;1737683;82;25688;-60
2022/10/08 03:53:45;;;;;;;;;;;;;;;10.02;72.66;102039.52;1733502;82;25857;-61
2022/10/08 03:56:14;;;;;;;;;;;;;;;9.99;72.48;102040.20;1741372;82;26077;-60
2022/10/08 03:58:42;;;;;;;;;;;;;;;9.91;72.40;102032.64;1738178;82;25594;-61
2022/10/08 04:01:12;;;;;;;;;;;;;;;9.85;72.32;102033.05;1742044;82;27440;-59
2022/10/08 04:03:39;;;;;;;;;;;;;;;9.79;72.34;102034.80;1734256;82;25724;-59
2022/10/08 04:06:06;;;;;;;;;;;;;;;9.69;72.27;102034.52;1733036;81;25752;-61
2022/10/08 04:08:34;;;;;;;;;;;;;;;9.61;72.33;102029.66;1736963;82;26145;-60
2022/10/08 04:11:04;;;;;;;;;;;;;;;9.54;72.45;102031.88;1741186;82;26503;-61
2022/10/08 04:13:32;;;;;;;;;;;;;;;9.47;72.60;102033.70;1740795;82;27510;-60
2022/10/08 04:16:01;;;;;;;;;;;;;;;9.40;73.08;102025.19;1702803;83;25755;-59
2022/10/08 04:18:27;;;;;;;;;;;;;;;9.29;72.96;102024.50;1731077;82;25787;-60
2022/10/08 04:20:59;;;;;;;;;;;;;;;9.24;73.06;102027.98;1751705;80;25829;-60
2022/10/08 04:23:26;;;;;;;;;;;;;;;9.21;73.17;102032.19;1743047;80;25608;-61
2022/10/08 04:25:53;;;;;;;;;;;;;;;9.19;73.33;102026.04;1732588;82;27426;-60
2022/10/08 04:28:21;;;;;;;;;;;;;;;9.20;73.38;102030.45;1731471;82;25691;-60
2022/10/08 04:30:59;;;;;;;;;;;;;;;9.18;73.42;102027.03;1741149;82;25775;-61
2022/10/08 04:33:26;;;;;;;;;;;;;;;9.16;73.27;102030.28;1739519;82;26051;-60
2022/10/08 04:35:54;;;;;;;;;;;;;;;9.12;73.33;102029.61;1736136;82;25645;-59
2022/10/08 04:38:21;;;;;;;;;;;;;;;9.12;73.27;102035.44;1729311;81;27563;-60
2022/10/08 04:40:47;;;;;;;;;;;;;;;9.08;73.40;102024.91;1748250;82;25749;-61
2022/10/08 04:43:15;;;;;;;;;;;;;;;9.07;73.30;102032.58;1745148;82;25714;-60
2022/10/08 04:45:43;;;;;;;;;;;;;;;9.08;73.59;102030.28;1748622;82;26267;-60
2022/10/08 04:48:11;;;;;;;;;;;;;;;9.07;73.62;102028.55;1748606;81;26506;-60
2022/10/08 04:50:38;;;;;;;;;;;;;;;9.08;73.69;102028.06;1749138;82;27504;-61
2022/10/08 04:53:06;;;;;;;;;;;;;;;9.04;73.61;102032.77;1746557;82;25627;-61
2022/10/08 04:55:33;;;;;;;;;;;;;;;9.03;73.83;102032.38;1747030;82;25690;-59
2022/10/08 04:57:59;;;;;;;;;;;;;;;9.05;73.76;102038.52;1743741;81;26098;-59
2022/10/08 05:00:26;;;;;;;;;;;;;;;9.05;74.03;102033.15;1745746;82;26231;-60
2022/10/08 05:02:53;;;;;;;;;;;;;;;9.05;73.98;102041.20;1742835;82;27446;-60
2022/10/08 05:05:19;;;;;;;;;;;;;;;9.05;74.10;102033.64;1742646;80;25489;-60
2022/10/08 05:07:45;;;;;;;;;;;;;;;9.05;74.13;102035.83;1745101;80;25758;-60
2022/10/08 05:10:12;;;;;;;;;;;;;;;9.06;74.35;102040.70;1746754;82;26252;-59
2022/10/08 05:12:39;;;;;;;;;;;;;;;9.06;74.42;102038.03;1744009;82;27287;-60
2022/10/08 05:15:08;;;;;;;;;;;;;;;9.08;74.50;102035.66;1741884;82;27843;-60
2022/10/08 05:17:34;;;;;;;;;;;;;;;9.14;74.61;102030.84;1742472;82;25860;-61
2022/10/08 05:20:00;;;;;;;;;;;;;;;9.19;74.67;102032.75;1745235;82;25684;-60
2022/10/08 05:22:27;;;;;;;;;;;;;;;9.24;74.86;102030.66;1742316;82;27214;-62
2022/10/08 05:24:54;;;;;;;;;;;;;;;9.34;74.89;102032.27;1739788;81;25815;-61
2022/10/08 05:27:20;;;;;;;;;;;;;;;9.44;75.04;102037.45;1740339;80;27475;-61
2022/10/08 05:29:47;;;;;;;;;;;;;;;9.52;75.04;102036.97;1740089;81;25458;-60
2022/10/08 05:32:14;;;;;;;;;;;;;;;9.57;74.88;102036.18;1741221;82;25726;-59
2022/10/08 05:34:40;;;;;;;;;;;;;;;9.60;74.85;102032.42;1737964;81;26109;-59
2022/10/08 05:37:06;;;;;;;;;;;;;;;9.63;75.11;102037.15;1738737;82;25694;-61
2022/10/08 05:39:33;;;;;;;;;;;;;;;9.67;75.03;102037.81;1754305;81;27549;-60
2022/10/08 05:41:59;;;;;;;;;;;;;;;9.71;75.08;102037.52;1744697;82;25763;-60
2022/10/08 05:44:26;;;;;;;;;;;;;;;9.76;75.00;102041.71;1722146;82;25746;-60
2022/10/08 05:46:53;;;;;;;;;;;;;;;9.81;75.24;102043.63;1713949;82;28261;-62
2022/10/08 05:49:21;;;;;;;;;;;;;;;9.85;75.33;102037.96;1715150;82;25755;-60
2022/10/08 05:51:48;;;;;;;;;;;;;;;9.90;75.25;102039.47;1722017;82;27412;-60
2022/10/08 05:54:16;;;;;;;;;;;;;;;9.94;75.23;102039.16;1732958;82;25822;-60
2022/10/08 05:56:43;;;;;;;;;;;;;;;10.01;75.34;102043.16;1731346;82;25727;-59
2022/10/08 05:59:19;;;;;;;;;;;;;;;10.07;75.59;102040.56;1730241;82;26888;-61
2022/10/08 06:01:46;;;;;;;;;;;;;;;10.15;75.63;102036.03;1716417;82;25810;-60
2022/10/08 06:04:13;;;;;;;;;;;;;;;10.22;75.69;102042.72;1714753;82;27452;-60
2022/10/08 06:06:41;;;;;;;;;;;;;;;10.27;75.64;102039.72;1711477;82;25786;-60
2022/10/08 06:09:10;;;;;;;;;;;;;;;10.34;75.75;102039.21;1720996;81;25879;-59
2022/10/08 06:11:36;;;;;;;;;;;;;;;10.42;75.78;102039.20;1738144;81;26832;-60
2022/10/08 06:14:05;;;;;;;;;;;;;;;10.48;75.79;102041.00;1716121;81;25694;-60
2022/10/08 06:16:33;;;;;;;;;;;;;;;10.51;75.80;102031.85;1711908;82;28112;-60
2022/10/08 06:19:01;;;;;;;;;;;;;;;10.58;75.81;102037.19;1721140;82;25757;-59
2022/10/08 06:21:29;;;;;;;;;;;;;;;10.65;75.86;102035.79;1728789;82;25897;-60
2022/10/08 06:23:58;;;;;;;;;;;;;;;10.75;76.08;102036.50;1731482;82;26829;-59
2022/10/08 06:26:27;;;;;;;;;;;;;;;10.85;76.32;102033.55;1723623;82;25704;-60
2022/10/08 06:28:55;;;;;;;;;;;;;;;10.95;76.32;102037.80;1713338;82;27572;-60
2022/10/08 06:31:22;;;;;;;;;;;;;;;11.07;76.16;102040.14;1715598;81;25695;-60
2022/10/08 06:33:49;;;;;;;;;;;;;;;11.18;76.18;102038.02;1730866;82;25716;-60
2022/10/08 06:36:22;;;;;;;;;;;;;;;11.26;76.04;102032.45;1733387;82;27195;-60
2022/10/08 06:38:50;;;;;;;;;;;;;;;11.37;76.15;102034.86;1735275;81;25715;-60
2022/10/08 06:41:17;;;;;;;;;;;;;;;11.47;75.91;102032.38;1733690;82;28194;-60
2022/10/08 06:43:43;;;;;;;;;;;;;;;11.56;76.03;102029.02;1734831;82;25917;-61
2022/10/08 06:46:10;;;;;;;;;;;;;;;11.67;75.98;102019.64;1739502;82;25478;-59
2022/10/08 06:48:38;;;;;;;;;;;;;;;11.79;75.82;102011.62;1733401;82;26081;-60
2022/10/08 06:51:07;;;;;;;;;;;;;;;11.88;75.54;102010.94;1723556;82;25748;-60
2022/10/08 06:53:34;;;;;;;;;;;;;;;11.98;75.54;102004.39;1733924;82;27465;-60
2022/10/08 06:56:07;;;;;;;;;;;;;;;12.08;75.26;102009.47;1733185;82;25825;-60
2022/10/08 06:58:34;;;;;;;;;;;;;;;12.17;75.26;102004.73;1695434;83;25490;-61
2022/10/08 07:01:09;;;;;;;;;;;;;;;12.30;75.04;102003.81;1662566;85;26029;-60
2022/10/08 07:03:36;;;;;;;;;;;;;;;12.39;74.87;101999.06;1673275;85;25728;-61
2022/10/08 07:06:06;;;;;;;;;;;;;;;12.48;74.48;102002.40;1673710;85;28271;-61
2022/10/08 07:08:32;;;;;;;;;;;;;;;12.58;74.26;102005.23;1677899;84;25696;-59
2022/10/08 07:11:03;;;;;;;;;;;;;;;12.67;73.95;101994.22;1674519;85;25761;-60
2022/10/08 07:13:30;;;;;;;;;;;;;;;12.78;73.57;101996.07;1675528;85;26224;-61
2022/10/08 07:16:06;;;;;;;;;;;;;;;12.88;73.59;101990.31;1673824;85;25762;-61
2022/10/08 07:18:34;;;;;;;;;;;;;;;13.01;73.46;101991.55;1677435;85;27589;-61
2022/10/08 07:21:01;;;;;;;;;;;;;;;13.15;73.32;101987.75;1673291;85;25466;-61
2022/10/08 07:23:28;;;;;;;;;;;;;;;13.28;72.93;101984.91;1699856;83;25778;-60
2022/10/08 07:26:00;;;;;;;;;;;;;;;13.42;72.72;101990.08;1670997;85;26327;-60
2022/10/08 07:28:29;;;;;;;;;;;;;;;13.55;72.35;101988.58;1668789;85;25766;-60
2022/10/08 07:30:55;;;;;;;;;;;;;;;13.67;71.85;101981.30;1670876;84;27741;-60
2022/10/08 07:33:22;;;;;;;;;;;;;;;13.82;71.02;101975.61;1670502;83;25905;-60
2022/10/08 07:35:49;;;;;;;;;;;;;;;13.95;70.51;101983.05;1662349;85;25461;-60
2022/10/08 07:38:17;;;;;;;;;;;;;;;14.09;70.85;101980.06;1670876;84;26272;-60
2022/10/08 07:40:47;;;;;;;;;;;;;;;14.25;70.65;101978.24;1675440;85;25717;-60
2022/10/08 07:43:13;;;;;;;;;;;;;;;14.42;70.40;101976.44;1675229;84;28361;-60
2022/10/08 07:45:43;;;;;;;;;;;;;;;14.62;69.58;101972.87;1662975;85;25830;-59
2022/10/08 07:48:10;;;;;;;;;;;;;;;14.84;68.68;101971.02;1672497;84;25883;-60
2022/10/08 07:50:36;;;;;;;;;;;;;;;15.05;67.29;101973.70;1671870;85;26087;-63
2022/10/08 07:53:02;;;;;;;;;;;;;;;15.19;65.57;101971.12;1681142;85;25495;-60
2022/10/08 07:55:29;;;;;;;;;;;;;;;15.32;66.37;101962.23;1678115;85;27487;-60
2022/10/08 07:57:56;;;;;;;;;;;;;;;15.45;65.95;101955.20;1676893;85;25843;-60
2022/10/08 08:00:22;;;;;;;;;;;;;;;15.63;66.15;101956.74;1676633;83;25739;-60
2022/10/08 08:02:49;;;;;;;;;;;;;;;15.78;64.86;101953.09;1676297;85;26174;-61
2022/10/08 08:05:15;;;;;;;;;;;;;;;15.90;63.45;101943.02;1671783;85;25749;-59
2022/10/08 08:07:41;;;;;;;;;;;;;;;16.07;64.22;101942.78;1671284;84;28345;-59
2022/10/08 08:10:08;;;;;;;;;;;;;;;16.23;63.12;101942.20;1675730;85;25809;-61
2022/10/08 08:12:34;;;;;;;;;;;;;;;16.40;63.55;101937.90;1683713;83;25808;-61
2022/10/08 08:15:01;;;;;;;;;;;;;;;16.59;61.62;101935.63;1679714;84;26150;-59
2022/10/08 08:17:27;;;;;;;;;;;;;;;16.77;61.26;101935.33;1679265;85;25742;-60
2022/10/08 08:19:54;;;;;;;;;;;;;;;16.97;60.00;101928.85;1677455;85;27499;-61
2022/10/08 08:22:20;;;;;;;;;;;;;;;17.18;59.51;101927.23;1683876;84;25480;-60
2022/10/08 08:24:47;;;;;;;;;;;;;;;17.40;57.98;101919.68;1685760;83;25906;-61
2022/10/08 08:27:13;;;;;;;;;;;;;;;17.62;54.41;101920.23;1680722;85;26214;-61
2022/10/08 08:29:40;;;;;;;;;;;;;;;17.82;53.07;101913.62;1680584;84;25761;-61
2022/10/08 08:32:07;;;;;;;;;;;;;;;18.06;48.55;101919.48;1683284;84;28316;-60
2022/10/08 08:34:33;;;;;;;;;;;;;;;18.25;50.42;101917.93;1682802;84;25812;-60
2022/10/08 08:36:59;;;;;;;;;;;;;;;18.44;51.03;101909.20;1678477;85;25726;-61
2022/10/08 08:39:27;;;;;;;;;;;;;;;18.67;48.95;101912.23;1662703;85;26771;-61
2022/10/08 08:42:26;;;;;;;;;;;;;;;18.89;48.65;101914.91;1664504;86;25824;-61
2022/10/08 08:45:01;;;;;;;;;;;;;;;19.17;48.45;101915.20;1666534;85;27502;-61
2022/10/08 08:47:36;;;;;;;;;;;;;;;19.50;49.08;101911.19;1680089;85;25728;-60
2022/10/08 08:50:09;;;;;;;;;;;;;;;19.79;46.55;101908.01;1676932;85;25809;-59
2022/10/08 08:52:38;;;;;;;;;;;;;;;20.15;46.44;101893.16;1679558;85;26337;-60
2022/10/08 08:55:11;;;;;;;;;;;;;;;20.51;45.43;101896.02;1680409;85;25812;-60
2022/10/08 08:57:53;;;;;;;;;;;;;;;20.80;43.95;101892.70;1679331;85;27509;-60
2022/10/08 09:00:23;;;;;;;;;;;;;;;21.17;45.03;101892.53;1676681;85;25823;-61
2022/10/08 09:02:59;;;;;;;;;;;;;;;21.56;42.83;101884.75;1679772;85;25796;-60
2022/10/08 09:05:29;;;;;;;;;;;;;;;22.05;42.53;101887.63;1676807;85;26253;-60
2022/10/08 09:07:58;;;;;;;;;;;;;;;22.68;39.40;101881.02;1679223;85;25460;-61
2022/10/08 09:10:34;;;;;;;;;;;;;;;23.44;37.15;101877.11;1677161;85;27493;-60
2022/10/08 09:13:01;;;;;;;;;;;;;;;24.22;34.01;101872.22;1664203;85;25778;-61
2022/10/08 09:15:32;;;;;;;;;;;;;;;24.95;36.94;101870.44;1677587;85;25510;-61
2022/10/08 09:18:01;;;;;;;;;;;;;;;25.49;32.25;101865.62;1676662;85;26113;-61
2022/10/08 09:20:29;;;;;;;;;;;;;;;26.11;34.86;101859.43;1677828;85;25758;-62
2022/10/08 09:22:56;;;;;;;;;;;;;;;26.69;34.48;101861.93;1678536;84;27262;-61
2022/10/08 09:25:27;;;;;;;;;;;;;;;27.20;34.26;101861.63;1676822;85;26445;-60
2022/10/08 09:27:59;;;;;;;;;;;;;;;27.70;31.82;101854.53;1676956;85;25836;-60
2022/10/08 09:30:33;;;;;;;;;;;;;;;28.29;29.24;101850.91;1696782;83;26240;-61
2022/10/08 09:33:05;;;;;;;;;;;;;;;28.63;30.54;101850.02;1712313;83;25723;-60
2022/10/08 09:35:34;;;;;;;;;;;;;;;28.98;29.85;101847.13;1680204;83;27626;-61
2022/10/08 09:38:01;;;;;;;;;;;;;;;29.30;30.20;101846.36;1657301;83;25861;-61
2022/10/08 09:40:27;;;;;;;;;;;;;;;29.70;29.16;101839.92;1682116;85;25842;-60
2022/10/08 09:43:10;;;;;;;;;;;;;;;30.07;27.57;101846.67;1675889;85;26099;-60
2022/10/08 09:45:43;;;;;;;;;;;;;;;30.54;28.28;101841.62;1678696;85;26694;-60
2022/10/08 09:48:22;;;;;;;;;;;;;;;31.03;25.43;101833.71;1678667;84;28147;-61
2022/10/08 09:50:58;;;;;;;;;;;;;;;31.56;26.51;101828.00;1675927;85;27378;-60
2022/10/08 09:53:27;;;;;;;;;;;;;;;31.98;26.19;101827.61;1675871;85;25796;-61
2022/10/08 09:55:57;;;;;;;;;;;;;;;32.47;27.66;101820.48;1681947;85;29832;-61
2022/10/08 09:58:25;;;;;;;;;;;;;;;32.58;22.53;101820.91;1675115;85;25797;-60
2022/10/08 10:01:04;;;;;;;;;;;;;;;32.62;23.80;101816.52;1681484;85;28257;-61
2022/10/08 10:03:31;;;;;;;;;;;;;;;33.05;25.68;101805.58;1677020;85;25745;-61
2022/10/08 10:05:58;;;;;;;;;;;;;;;33.38;24.48;101797.27;1678238;85;25510;-60
2022/10/08 10:08:48;;;;;;;;;;;;;;;33.70;24.93;101793.05;1677247;85;26299;-61
2022/10/08 10:11:33;;;;;;;;;;;;;;;33.91;24.03;101792.38;1682718;85;25800;-61
2022/10/08 10:14:03;;;;;;;;;;;;;;;34.20;24.12;101789.18;1681059;85;27507;-60
2022/10/08 10:16:35;;;;;;;;;;;;;;;34.57;23.78;101782.09;1679550;84;25800;-61
2022/10/08 10:19:08;;;;;;;;;;;;;;;34.57;22.69;101783.48;1667222;85;25454;-60
2022/10/08 10:21:38;;;;;;;;;;;;;;;34.80;21.57;101779.93;1700673;83;26131;-61
2022/10/08 10:24:25;;;;;;;;;;;;;;;34.68;21.88;101782.13;1680420;83;25730;-61
2022/10/08 10:26:54;;;;;;;;;;;;;;;34.67;20.54;101777.65;1677277;84;27544;-61
2022/10/08 10:29:24;;;;;;;;;;;;;;;34.83;19.50;101768.17;1677464;83;25984;-61
2022/10/08 10:31:57;;;;;;;;;;;;;;;35.06;21.17;101759.03;1686427;83;25830;-61
2022/10/08 10:34:26;;;;;;;;;;;;;;;35.21;21.54;101758.20;1680332;84;25993;-60
2022/10/08 10:37:01;;;;;;;;;;;;;;;35.25;20.23;101751.77;1677144;85;26148;-61
2022/10/08 10:39:51;;;;;;;;;;;;;;;35.64;21.73;101748.09;1693489;83;27616;-60
2022/10/08 10:42:27;;;;;;;;;;;;;;;35.64;20.82;101739.70;1681175;85;25730;-61
2022/10/08 10:45:15;;;;;;;;;;;;;;;35.87;20.87;101734.03;1681351;85;25734;-60
2022/10/08 10:47:41;;;;;;;;;;;;;;;36.32;20.32;101728.00;1677386;85;26265;-61
2022/10/08 10:50:15;;;;;;;;;;;;;;;36.32;19.98;101730.80;1679242;85;26173;-60
2022/10/08 10:53:07;;;;;;;;;;;;;;;36.49;20.15;101723.46;1676403;85;28383;-60
2022/10/08 10:55:40;;;;;;;;;;;;;;;36.86;20.58;101718.42;1679241;85;25877;-60
2022/10/08 10:58:10;;;;;;;;;;;;;;;37.09;20.30;101714.06;1676515;85;25813;-61
2022/10/08 11:01:01;;;;;;;;;;;;;;;37.13;19.28;101701.69;1680369;85;26128;-60
2022/10/08 11:03:38;;;;;;;;;;;;;;;36.95;18.28;101702.69;1679952;85;25827;-62
2022/10/08 11:06:31;;;;;;;;;;;;;;;36.71;18.73;101693.33;1677335;85;27506;-61
2022/10/08 11:09:10;;;;;;;;;;;;;;;36.73;19.60;101687.69;1679309;85;25793;-60
2022/10/08 11:11:39;;;;;;;;;;;;;;;36.67;17.97;101683.27;1676682;85;25785;-60
2022/10/08 11:14:13;;;;;;;;;;;;;;;36.18;19.11;101680.17;1675482;85;26196;-60
2022/10/08 11:16:55;;;;;;;;;;;;;;;35.92;19.04;101671.63;1670615;85;25827;-61
2022/10/08 11:19:41;;;;;;;;;;;;;;;35.72;18.64;101667.78;1665076;85;27685;-61
2022/10/08 11:22:36;;;;;;;;;;;;;;;35.04;18.87;101659.21;1680918;85;26440;-60
2022/10/08 11:25:39;;;;;;;;;;;;;;;34.66;19.78;101662.27;1680600;85;25751;-61
2022/10/08 11:28:27;;;;;;;;;;;;;;;34.27;19.78;101657.13;1680560;85;26398;-60
2022/10/08 11:31:03;;;;;;;;;;;;;;;33.71;20.51;101653.84;1685285;84;25786;-61
2022/10/08 11:33:30;;;;;;;;;;;;;;;33.57;20.47;101651.27;1682146;85;27451;-61
2022/10/08 11:36:01;;;;;;;;;;;;;;;33.22;20.55;101645.70;1653129;85;25790;-60
2022/10/08 11:38:37;;;;;;;;;;;;;;;32.86;20.77;101642.11;1671684;84;25879;-60
2022/10/08 11:41:07;;;;;;;;;;;;;;;32.70;20.42;101636.09;1676548;84;26116;-61
2022/10/08 11:43:46;;;;;;;;;;;;;;;32.46;20.79;101634.48;1681309;85;25743;-60
2022/10/08 11:46:27;;;;;;;;;;;;;;;32.26;21.25;101630.09;1680207;85;27486;-61
2022/10/08 11:48:51;;;;;;;;;;;;;;;32.08;21.55;101628.48;1675490;85;25473;-61
2022/10/08 11:51:24;;;;;;;;;;;;;;;31.81;21.20;101625.93;1672142;85;25684;-61
2022/10/08 11:54:13;;;;;;;;;;;;;;;31.57;21.92;101619.73;1668645;85;26105;-61
2022/10/08 11:56:43;;;;;;;;;;;;;;;31.52;22.26;101610.78;1675205;85;26346;-62
2022/10/08 11:59:33;;;;;;;;;;;;;;;31.45;22.10;101610.13;1660552;85;27555;-62
2022/10/08 12:02:03;;;;;;;;;;;;;;;31.37;21.90;101610.05;1676410;85;25701;-61
2022/10/08 12:04:35;;;;;;;;;;;;;;;31.15;21.81;101609.14;1673829;84;25678;-61
2022/10/08 12:07:05;;;;;;;;;;;;;;;30.97;22.08;101615.80;1674893;85;26187;-60
2022/10/08 12:10:06;;;;;;;;;;;;;;;30.96;22.47;101607.98;1676559;85;25900;-61
2022/10/08 12:12:52;;;;;;;;;;;;;;;31.05;22.81;101601.48;1648003;85;27906;-60
2022/10/08 12:15:32;;;;;;;;;;;;;;;31.16;22.00;101598.33;1674257;85;25884;-60
2022/10/08 12:18:03;;;;;;;;;;;;;;;31.41;21.97;101590.05;1678638;85;26447;-60
2022/10/08 12:20:33;;;;;;;;;;;;;;;31.69;22.42;101586.30;1684397;84;26126;-61
2022/10/08 12:23:08;;;;;;;;;;;;;;;32.05;22.02;101582.52;1693127;84;25824;-61
2022/10/08 12:25:48;;;;;;;;;;;;;;;32.45;21.73;101581.84;1679305;84;27565;-62
2022/10/08 12:28:24;;;;;;;;;;;;;;;33.00;21.84;101579.80;1674040;84;25752;-60
2022/10/08 12:30:57;;;;;;;;;;;;;;;33.78;20.96;101572.69;1678839;83;25784;-60
2022/10/08 12:33:25;;;;;;;;;;;;;;;33.98;20.21;101577.50;1685511;85;26779;-61
2022/10/08 12:36:13;;;;;;;;;;;;;;;34.45;20.03;101572.84;1680603;85;26159;-61
2022/10/08 12:38:56;;;;;;;;;;;;;;;34.85;19.50;101574.50;1676863;83;27404;-60
2022/10/08 12:41:35;;;;;;;;;;;;;;;35.28;18.20;101567.17;1666777;85;25522;-61
2022/10/08 12:44:05;;;;;;;;;;;;;;;35.49;17.61;101565.16;1681707;84;25768;-60
2022/10/08 12:47:03;;;;;;;;;;;;;;;35.16;17.74;101574.48;1649907;82;26256;-60
2022/10/08 12:49:34;;;;;;;;;;;;;;;35.28;18.55;101567.74;1730970;82;25799;-61
2022/10/08 12:52:12;;;;;;;;;;;;;;;36.06;17.70;101562.64;1697080;82;27533;-62
2022/10/08 12:54:48;;;;;;;;;;;;;;;36.67;18.12;101559.13;1698549;82;25762;-61
2022/10/08 12:57:21;;;;;;;;;;;;;;;37.05;16.79;101563.51;1679285;85;25761;-62
2022/10/08 12:59:49;;;;;;;;;;;;;;;37.40;17.34;101554.42;1734706;82;26086;-61
2022/10/08 13:02:40;;;;;;;;;;;;;;;38.03;16.63;101551.05;1738795;82;25667;-61